Time;durP1;ratioP1;P1;durP2;ratioP2;P2;SDS_P1;SDS_P2;PMS_P1;PMS_P2;Temp;Humidity;BMP_temperature;BMP_pressure;BME280_temperature;BME280_humidity;BME280_pressure;Samples;Min_cycle;Max_cycle;Signal;HPM_P1;HPM_P2
2023/01/11 00:00:00;;;;;;;6.90;3.78;;;-0.50;99.90;;;;;;4952556;28;20556;-70
2023/01/11 00:02:28;;;;;;;5.90;3.45;;;-0.50;99.90;;;;;;4951853;28;20078;-71
2023/01/11 00:04:55;;;;;;;6.43;3.67;;;-0.50;99.90;;;;;;4952735;28;20054;-71
2023/01/11 00:07:23;;;;;;;5.45;3.47;;;-0.50;99.90;;;;;;4954674;28;20060;-71
2023/01/11 00:09:52;;;;;;;10.40;4.43;;;-0.50;99.90;;;;;;4958942;28;20051;-71
2023/01/11 00:12:19;;;;;;;7.85;4.13;;;-0.50;99.90;;;;;;4949653;28;20062;-71
2023/01/11 00:14:46;;;;;;;5.68;3.60;;;-0.40;99.90;;;;;;4938413;28;20135;-71
2023/01/11 00:17:14;;;;;;;5.53;3.78;;;-0.40;99.90;;;;;;4948269;29;20142;-71
2023/01/11 00:19:41;;;;;;;9.52;4.28;;;-0.40;99.90;;;;;;4950905;28;20048;-71
2023/01/11 00:22:08;;;;;;;6.82;3.60;;;-0.30;99.90;;;;;;4947463;29;20504;-72
2023/01/11 00:24:36;;;;;;;5.28;3.53;;;-0.40;99.90;;;;;;4952858;28;20039;-72
2023/01/11 00:27:04;;;;;;;5.80;3.70;;;-0.40;99.90;;;;;;4969667;28;20074;-70
2023/01/11 00:29:32;;;;;;;8.07;3.55;;;-0.40;99.90;;;;;;4947745;28;20539;-70
2023/01/11 00:31:59;;;;;;;8.18;3.85;;;-0.40;99.90;;;;;;4951212;28;20515;-70
2023/01/11 00:34:27;;;;;;;7.28;3.40;;;-0.40;99.90;;;;;;4938708;29;20593;-71
2023/01/11 00:36:54;;;;;;;4.97;3.35;;;-0.30;99.90;;;;;;4938991;29;20052;-71
2023/01/11 00:39:22;;;;;;;10.27;3.50;;;-0.30;99.90;;;;;;4952542;28;20472;-70
2023/01/11 00:50:06;;;;;;;9.13;3.78;;;-0.30;99.90;;;;;;4946898;28;20054;-70
2023/01/11 00:52:33;;;;;;;13.35;7.65;;;-0.30;99.90;;;;;;4943085;29;20055;-71
2023/01/11 00:55:00;;;;;;;7.68;4.45;;;-0.30;99.90;;;;;;4954696;29;20508;-70
2023/01/11 00:57:28;;;;;;;8.13;3.75;;;-0.30;99.90;;;;;;4950584;28;20047;-70
2023/01/11 00:59:57;;;;;;;9.50;4.55;;;-0.30;99.90;;;;;;4954705;29;20051;-70
2023/01/11 01:02:24;;;;;;;5.85;3.85;;;-0.30;99.90;;;;;;4949891;28;20476;-70
2023/01/11 01:04:52;;;;;;;6.50;3.70;;;-0.30;99.90;;;;;;4938390;28;20519;-70
2023/01/11 01:07:19;;;;;;;7.22;3.95;;;-0.30;99.90;;;;;;4947528;29;20058;-70
2023/01/11 01:09:46;;;;;;;8.85;4.60;;;-0.20;99.90;;;;;;4954614;29;20083;-71
2023/01/11 01:14:24;;;;;;;5.00;3.28;;;-0.20;99.90;;;;;;4953579;29;20519;-70
2023/01/11 01:15:02;;;;;;;7.78;3.60;;;-0.20;99.90;;;;;;4952888;28;20543;-70
2023/01/11 01:17:31;;;;;;;6.20;3.55;;;-0.20;99.90;;;;;;4954871;28;20059;-70
2023/01/11 01:19:58;;;;;;;6.40;3.78;;;-0.30;99.90;;;;;;4952743;29;20515;-70
2023/01/11 01:22:26;;;;;;;9.68;4.35;;;-0.20;99.90;;;;;;4953268;28;20165;-70
2023/01/11 01:24:53;;;;;;;5.75;4.10;;;-0.20;99.90;;;;;;4954260;29;20067;-70
2023/01/11 01:27:20;;;;;;;6.50;4.30;;;-0.20;99.90;;;;;;4950295;28;20047;-70
2023/01/11 01:29:47;;;;;;;6.53;3.75;;;-0.20;99.90;;;;;;4954954;28;20482;-70
2023/01/11 01:32:16;;;;;;;6.53;3.97;;;-0.20;99.90;;;;;;4953000;28;20051;-70
2023/01/11 01:34:44;;;;;;;6.25;4.15;;;-0.20;99.90;;;;;;4942987;29;20044;-70
2023/01/11 01:37:13;;;;;;;6.93;3.55;;;-0.10;99.90;;;;;;4948887;29;20134;-70
2023/01/11 01:39:41;;;;;;;6.22;3.67;;;-0.20;99.90;;;;;;4958361;28;20457;-70
2023/01/11 01:42:14;;;;;;;6.57;3.10;;;-0.20;99.90;;;;;;4953658;28;20496;-70
2023/01/11 01:44:58;;;;;;;7.72;3.83;;;-0.20;99.90;;;;;;4952923;29;20162;-70
2023/01/11 01:47:37;;;;;;;7.47;4.47;;;-0.20;99.90;;;;;;4949121;28;20052;-71
2023/01/11 01:50:11;;;;;;;5.97;3.63;;;-0.20;99.90;;;;;;4944068;28;20411;-71
2023/01/11 01:52:39;;;;;;;8.00;3.50;;;-0.20;99.90;;;;;;4953773;29;20464;-71
2023/01/11 01:55:13;;;;;;;5.68;3.55;;;-0.20;99.90;;;;;;4943492;28;20048;-71
2023/01/11 01:57:42;;;;;;;6.63;3.83;;;-0.20;99.90;;;;;;4953661;29;20402;-71
2023/01/11 02:00:12;;;;;;;7.50;3.55;;;-0.20;99.90;;;;;;4952900;28;20050;-69
2023/01/11 02:02:43;;;;;;;3.92;3.25;;;-0.20;99.90;;;;;;4953035;28;20051;-69
2023/01/11 02:05:13;;;;;;;7.82;3.90;;;-0.20;99.90;;;;;;4952013;28;20497;-70
2023/01/11 02:07:43;;;;;;;6.18;3.92;;;-0.30;99.90;;;;;;4952369;29;20055;-70
2023/01/11 02:10:15;;;;;;;6.35;3.45;;;-0.20;99.90;;;;;;4952368;28;20055;-71
2023/01/11 02:12:47;;;;;;;5.43;3.75;;;-0.30;99.90;;;;;;4950835;28;20492;-70
2023/01/11 02:15:16;;;;;;;6.15;3.30;;;-0.30;99.90;;;;;;4934872;29;20098;-71
2023/01/11 02:17:45;;;;;;;7.50;3.70;;;-0.20;99.90;;;;;;4955678;28;20051;-70
2023/01/11 02:20:49;;;;;;;4.72;3.70;;;-0.30;99.90;;;;;;4951085;29;20407;-71
2023/01/11 02:23:51;;;;;;;;;;;-0.30;99.90;;;;;;4951900;28;20053;-71
2023/01/11 02:26:59;;;;;;;4.18;2.97;;;-0.30;99.90;;;;;;4951880;28;20012;-71
2023/01/11 02:29:41;;;;;;;4.07;2.80;;;-0.30;99.90;;;;;;4935376;29;20082;-70
2023/01/11 02:32:22;;;;;;;3.92;3.38;;;-0.30;99.90;;;;;;4944925;29;20043;-70
2023/01/11 02:35:01;;;;;;;5.82;3.35;;;-0.30;99.90;;;;;;4944705;28;20135;-71
2023/01/11 02:37:38;;;;;;;5.40;3.22;;;-0.30;99.90;;;;;;4948642;29;20051;-70
2023/01/11 02:40:14;;;;;;;6.68;3.55;;;-0.20;99.90;;;;;;4952618;28;20051;-71
2023/01/11 02:45:46;;;;;;;7.97;4.65;;;-0.30;99.90;;;;;;4951221;28;20047;-71
2023/01/11 02:48:23;;;;;;;3.92;2.53;;;-0.30;99.90;;;;;;4952795;28;20608;-70
2023/01/11 02:51:00;;;;;;;4.00;3.35;;;-0.30;99.90;;;;;;4934159;29;20055;-72
2023/01/11 02:53:34;;;;;;;5.80;3.63;;;-0.20;99.90;;;;;;4937836;28;20055;-71
2023/01/11 02:56:08;;;;;;;5.35;2.95;;;-0.30;99.90;;;;;;4943455;28;20432;-71
2023/01/11 02:58:39;;;;;;;4.53;3.25;;;-0.20;99.90;;;;;;4936123;29;20431;-71
2023/01/11 03:01:09;;;;;;;4.68;3.42;;;-0.20;99.90;;;;;;4946161;28;20087;-71
2023/01/11 03:03:37;;;;;;;4.53;3.13;;;-0.20;99.90;;;;;;4943406;28;20407;-71
2023/01/11 03:06:12;;;;;;;3.60;2.67;;;-0.30;99.90;;;;;;4949918;29;20051;-70
2023/01/11 03:09:06;;;;;;;4.63;3.20;;;-0.30;99.90;;;;;;4933854;29;20059;-70
2023/01/11 03:14:59;;;;;;;6.90;3.35;;;-0.30;99.90;;;;;;4930397;29;20058;-71
2023/01/11 03:17:42;;;;;;;4.85;3.30;;;-0.30;99.90;;;;;;4949067;28;20051;-72
2023/01/11 03:20:21;;;;;;;5.20;3.47;;;-0.20;99.90;;;;;;4938130;28;20079;-70
2023/01/11 03:23:04;;;;;;;5.70;3.17;;;-0.30;99.90;;;;;;4951617;29;20081;-70
2023/01/11 03:25:46;;;;;;;5.65;3.08;;;-0.30;99.90;;;;;;4950124;29;20097;-71
2023/01/11 03:28:22;;;;;;;5.10;4.13;;;-0.20;99.90;;;;;;4933829;29;20527;-70
2023/01/11 03:30:59;;;;;;;3.78;3.10;;;-0.20;99.90;;;;;;4944587;28;20051;-70
2023/01/11 03:33:37;;;;;;;6.20;4.13;;;-0.20;99.90;;;;;;4938808;29;20168;-70
2023/01/11 03:36:14;;;;;;;4.05;3.13;;;-0.20;99.90;;;;;;4948215;29;20118;-71
2023/01/11 03:38:49;;;;;;;4.95;3.55;;;-0.30;99.90;;;;;;4951316;28;20054;-70
2023/01/11 03:41:22;;;;;;;4.70;3.97;;;-0.30;99.90;;;;;;4955401;28;20424;-70
2023/01/11 03:43:52;;;;;;;6.50;3.58;;;-0.30;99.90;;;;;;4946788;28;20099;-70
2023/01/11 03:46:26;;;;;;;4.15;3.17;;;-0.20;99.90;;;;;;4936026;29;20051;-71
2023/01/11 03:49:02;;;;;;;4.35;3.13;;;-0.30;99.90;;;;;;4943890;28;20058;-71
2023/01/11 03:51:34;;;;;;;5.68;3.70;;;-0.30;99.90;;;;;;4953019;29;20059;-71
2023/01/11 03:54:06;;;;;;;8.20;4.40;;;-0.20;99.90;;;;;;4937182;29;20047;-71
2023/01/11 03:56:41;;;;;;;6.55;3.63;;;-0.30;99.90;;;;;;4941522;28;20402;-71
2023/01/11 03:59:08;;;;;;;4.95;3.40;;;-0.30;99.90;;;;;;4941976;28;20131;-70
2023/01/11 04:01:37;;;;;;;4.43;3.25;;;-0.30;99.90;;;;;;4955223;28;20427;-72
2023/01/11 04:04:06;;;;;;;6.63;3.60;;;-0.30;99.90;;;;;;4952268;28;20055;-67
2023/01/11 04:06:37;;;;;;;5.25;3.53;;;-0.30;99.90;;;;;;4967096;28;20043;-66
2023/01/11 04:09:05;;;;;;;5.25;3.80;;;-0.30;99.90;;;;;;4965050;28;20077;-70
2023/01/11 04:11:32;;;;;;;7.93;4.53;;;-0.30;99.90;;;;;;4951155;29;20053;-67
2023/01/11 04:14:00;;;;;;;5.80;4.03;;;-0.30;99.90;;;;;;4952114;28;20051;-69
2023/01/11 04:16:28;;;;;;;5.95;4.30;;;-0.30;99.90;;;;;;4949543;28;20118;-68
2023/01/11 04:18:55;;;;;;;4.70;3.38;;;-0.30;99.90;;;;;;4946518;28;20620;-69
2023/01/11 04:21:24;;;;;;;5.57;4.20;;;-0.30;99.90;;;;;;4950169;28;20122;-70
2023/01/11 04:23:52;;;;;;;10.13;5.20;;;-0.30;99.90;;;;;;4948375;28;20050;-74
2023/01/11 04:26:19;;;;;;;10.30;5.18;;;-0.30;99.90;;;;;;4962640;28;20040;-68
2023/01/11 04:28:47;;;;;;;7.95;4.30;;;-0.30;99.90;;;;;;4954527;28;20047;-73
2023/01/11 04:31:14;;;;;;;10.98;5.45;;;-0.30;99.90;;;;;;4972312;28;20537;-74
2023/01/11 04:33:42;;;;;;;10.52;5.20;;;-0.30;99.90;;;;;;4947790;28;20106;-73
2023/01/11 04:36:11;;;;;;;7.35;4.07;;;-0.30;99.90;;;;;;4944778;29;20051;-75
2023/01/11 04:38:40;;;;;;;7.85;4.15;;;-0.40;99.90;;;;;;4951793;28;20105;-74
2023/01/11 04:43:55;;;;;;;6.20;4.00;;;-0.40;99.90;;;;;;4958590;28;20524;-67
2023/01/11 04:46:23;;;;;;;6.50;4.05;;;-0.30;99.90;;;;;;4941534;28;20153;-71
2023/01/11 04:48:50;;;;;;;7.22;4.35;;;-0.40;99.90;;;;;;4948831;28;20051;-73
2023/01/11 04:51:18;;;;;;;7.78;4.07;;;-0.40;99.90;;;;;;4952002;28;20105;-74
2023/01/11 04:53:49;;;;;;;9.60;4.80;;;-0.40;99.90;;;;;;4962542;28;20574;-74
2023/01/11 04:56:18;;;;;;;12.02;5.53;;;-0.40;99.90;;;;;;4975307;28;20401;-73
2023/01/11 04:58:45;;;;;;;11.80;5.40;;;-0.40;99.90;;;;;;4961779;28;20051;-72
2023/01/11 05:01:16;;;;;;;10.43;5.30;;;-0.50;99.90;;;;;;4960546;28;20061;-68
2023/01/11 05:03:45;;;;;;;8.82;4.78;;;-0.50;99.90;;;;;;4962402;28;20117;-70
2023/01/11 05:06:13;;;;;;;7.72;4.38;;;-0.40;99.90;;;;;;4952485;28;20051;-69
2023/01/11 05:08:45;;;;;;;10.32;5.20;;;-0.40;99.90;;;;;;4952610;28;20126;-67
2023/01/11 05:11:13;;;;;;;9.32;4.60;;;-0.50;99.90;;;;;;4954379;28;20057;-69
2023/01/11 05:13:41;;;;;;;10.60;4.97;;;-0.50;99.90;;;;;;4946353;28;20080;-68
2023/01/11 05:16:11;;;;;;;7.78;3.88;;;-0.50;99.90;;;;;;4935608;29;20059;-69
2023/01/11 05:18:41;;;;;;;7.78;4.22;;;-0.50;99.90;;;;;;4940815;28;20435;-67
2023/01/11 05:21:09;;;;;;;7.13;3.90;;;-0.50;99.90;;;;;;4953848;28;20051;-68
2023/01/11 05:23:36;;;;;;;7.28;4.72;;;-0.50;99.90;;;;;;4966235;28;20142;-72
2023/01/11 05:26:06;;;;;;;7.22;4.35;;;-0.50;99.90;;;;;;4965126;28;20058;-73
2023/01/11 05:28:35;;;;;;;7.82;3.72;;;-0.50;99.90;;;;;;4954983;28;20455;-73
2023/01/11 05:31:03;;;;;;;8.40;3.63;;;-0.50;99.90;;;;;;4976220;28;20571;-74
2023/01/11 05:33:31;;;;;;;6.80;3.47;;;-0.50;99.90;;;;;;4953150;29;20135;-75
2023/01/11 05:36:00;;;;;;;7.40;4.28;;;-0.60;99.90;;;;;;4969362;28;20051;-72
2023/01/11 05:38:29;;;;;;;8.45;4.28;;;-0.60;99.90;;;;;;4954242;28;20051;-73
2023/01/11 05:40:57;;;;;;;7.53;4.30;;;-0.60;99.90;;;;;;4960792;28;20055;-74
2023/01/11 05:43:26;;;;;;;6.55;4.03;;;-0.60;99.90;;;;;;4954718;28;20047;-68
2023/01/11 05:45:55;;;;;;;6.57;3.67;;;-0.60;99.90;;;;;;4960432;28;20043;-68
2023/01/11 05:48:22;;;;;;;4.45;3.42;;;-0.70;99.90;;;;;;4969092;28;20141;-67
2023/01/11 05:50:54;;;;;;;7.50;4.15;;;-0.60;99.90;;;;;;4973255;28;20047;-66
2023/01/11 05:53:24;;;;;;;12.38;4.40;;;-0.70;99.90;;;;;;4973354;28;20154;-67
2023/01/11 05:55:54;;;;;;;4.65;3.33;;;-0.70;99.90;;;;;;4964123;28;20063;-67
2023/01/11 05:58:23;;;;;;;9.43;5.10;;;-0.70;99.90;;;;;;4964308;28;20059;-67
2023/01/11 06:00:51;;;;;;;9.93;4.38;;;-0.60;99.90;;;;;;4962238;28;20078;-66
2023/01/11 06:03:20;;;;;;;5.88;3.20;;;-0.60;99.90;;;;;;4953066;28;20441;-66
2023/01/11 06:05:48;;;;;;;11.23;4.22;;;-0.60;99.90;;;;;;4952219;29;20062;-68
2023/01/11 06:08:15;;;;;;;6.90;3.97;;;-0.60;99.90;;;;;;4953963;29;20263;-67
2023/01/11 06:10:45;;;;;;;7.80;3.97;;;-0.60;99.90;;;;;;4959484;28;20066;-67
2023/01/11 06:13:27;;;;;;;6.40;4.00;;;-0.60;99.90;;;;;;4938799;28;20143;-68
2023/01/11 06:15:59;;;;;;;;;;;-0.70;99.90;;;;;;4950132;29;20047;-66
2023/01/11 06:18:29;;;;;;;6.78;4.43;;;-0.70;99.90;;;;;;4944694;28;19926;-68
2023/01/11 06:20:57;;;;;;;8.00;4.32;;;-0.80;99.90;;;;;;4958885;28;20671;-67
2023/01/11 06:23:25;;;;;;;7.70;4.68;;;-0.80;99.90;;;;;;4950868;28;20054;-68
2023/01/11 06:25:54;;;;;;;12.20;4.40;;;-0.80;99.90;;;;;;4959988;28;20043;-69
2023/01/11 06:28:22;;;;;;;10.23;4.60;;;-0.80;99.90;;;;;;4959436;28;20055;-72
2023/01/11 06:30:52;;;;;;;6.78;4.38;;;-0.70;99.90;;;;;;4961617;28;20052;-73
2023/01/11 06:33:21;;;;;;;6.03;4.13;;;-0.80;99.90;;;;;;4958183;28;20150;-72
2023/01/11 06:35:50;;;;;;;8.00;3.75;;;-0.80;99.90;;;;;;4944313;29;20036;-74
2023/01/11 06:38:20;;;;;;;5.85;3.50;;;-0.80;99.90;;;;;;4965183;28;20051;-73
2023/01/11 06:40:53;;;;;;;8.43;3.83;;;-0.80;99.90;;;;;;4952625;28;20055;-73
2023/01/11 06:43:20;;;;;;;;;;;-0.80;99.90;;;;;;4962047;28;20531;-73
2023/01/11 06:45:48;;;;;;;6.63;4.38;;;-0.80;99.90;;;;;;4946935;28;19926;-73
2023/01/11 06:48:16;;;;;;;9.73;3.25;;;-0.80;99.90;;;;;;4944695;28;20056;-74
2023/01/11 06:50:43;;;;;;;5.97;4.13;;;-0.80;99.90;;;;;;4951041;28;20086;-73
2023/01/11 06:53:12;;;;;;;13.13;5.53;;;-0.80;99.90;;;;;;4945333;28;20070;-73
2023/01/11 06:55:40;;;;;;;6.30;3.72;;;-0.80;99.90;;;;;;4948551;28;20040;-73
2023/01/11 06:58:08;;;;;;;8.40;3.67;;;-0.80;99.90;;;;;;4950166;28;20070;-73
2023/01/11 07:00:35;;;;;;;7.78;4.32;;;-0.80;99.90;;;;;;4948581;28;20043;-74
2023/01/11 07:03:04;;;;;;;5.60;4.03;;;-0.80;99.90;;;;;;4950444;28;20476;-73
2023/01/11 07:05:32;;;;;;;7.60;4.40;;;-0.80;99.90;;;;;;4943285;28;20075;-74
2023/01/11 07:08:00;;;;;;;6.53;4.10;;;-0.80;99.90;;;;;;4957448;28;20425;-72
2023/01/11 07:10:29;;;;;;;9.52;4.93;;;-0.80;99.90;;;;;;4942154;29;20035;-74
2023/01/11 07:12:57;;;;;;;6.60;3.38;;;-0.90;99.90;;;;;;4944579;28;20415;-74
2023/01/11 07:15:25;;;;;;;5.75;4.30;;;-0.80;99.90;;;;;;4945790;28;20132;-73
2023/01/11 07:17:55;;;;;;;8.18;4.10;;;-0.80;99.90;;;;;;4961875;28;20055;-72
2023/01/11 07:20:23;;;;;;;9.95;4.32;;;-0.80;99.90;;;;;;4942508;29;20055;-75
2023/01/11 07:22:51;;;;;;;6.13;4.32;;;-0.80;99.90;;;;;;4944479;28;20054;-72
2023/01/11 07:25:18;;;;;;;7.78;4.22;;;-0.70;99.90;;;;;;4969629;28;20083;-74
2023/01/11 07:27:47;;;;;;;7.47;4.40;;;-0.70;99.90;;;;;;4950655;28;20613;-74
2023/01/11 07:30:15;;;;;;;9.35;4.47;;;-0.80;99.90;;;;;;4951580;28;20142;-73
2023/01/11 07:32:42;;;;;;;5.88;3.45;;;-0.70;99.90;;;;;;4947810;28;20059;-74
2023/01/11 07:35:10;;;;;;;7.38;4.10;;;-0.70;99.90;;;;;;4973446;28;20065;-77
2023/01/11 07:37:40;;;;;;;14.70;5.75;;;-0.70;99.90;;;;;;4952737;28;20047;-77
2023/01/11 07:40:09;;;;;;;6.78;3.25;;;-0.80;99.90;;;;;;4947182;28;20056;-76
2023/01/11 07:45:23;;;;;;;10.48;3.92;;;-0.80;99.90;;;;;;4952223;28;20047;-79
2023/01/11 07:47:51;;;;;;;6.65;4.80;;;-0.80;99.90;;;;;;4954306;28;20089;-78
2023/01/11 07:50:18;;;;;;;8.60;3.97;;;-0.80;99.90;;;;;;4951281;28;20352;-76
2023/01/11 07:52:50;;;;;;;5.80;3.85;;;-0.80;99.90;;;;;;4964502;28;20043;-77
2023/01/11 07:55:17;;;;;;;6.13;4.20;;;-0.70;99.90;;;;;;4955055;28;20075;-78
2023/01/11 07:57:45;;;;;;;6.53;4.22;;;-0.70;99.90;;;;;;4954202;28;20053;-76
2023/01/11 08:00:14;;;;;;;5.63;4.38;;;-0.70;99.90;;;;;;4964082;28;20050;-77
2023/01/11 08:02:42;;;;;;;12.10;5.30;;;-0.70;99.90;;;;;;4954309;28;20063;-77
2023/01/11 08:05:10;;;;;;;12.98;4.55;;;-0.70;99.90;;;;;;4962738;28;20439;-76
2023/01/11 08:07:38;;;;;;;8.57;4.47;;;-0.70;99.90;;;;;;4968194;28;20070;-76
2023/01/11 08:10:07;;;;;;;8.40;4.85;;;-0.70;99.90;;;;;;4968734;28;20134;-74
2023/01/11 08:15:19;;;;;;;10.15;5.30;;;-0.70;99.90;;;;;;4949888;28;20058;-77
2023/01/11 08:17:48;;;;;;;11.38;5.53;;;-0.60;99.90;;;;;;4953761;28;20119;-78
2023/01/11 08:20:16;;;;;;;8.85;4.97;;;-0.60;99.90;;;;;;4949099;28;20130;-77
2023/01/11 08:22:44;;;;;;;8.02;4.55;;;-0.60;99.90;;;;;;4949513;28;20142;-79
2023/01/11 08:25:11;;;;;;;9.93;4.93;;;-0.60;99.90;;;;;;4950364;28;20063;-78
2023/01/11 08:27:40;;;;;;;8.27;4.78;;;-0.60;99.90;;;;;;4952060;28;20055;-78
2023/01/11 08:30:10;;;;;;;8.82;4.53;;;-0.60;99.90;;;;;;4950692;28;20055;-77
2023/01/11 08:32:37;;;;;;;6.57;4.85;;;-0.60;99.90;;;;;;4948157;28;20059;-79
2023/01/11 08:35:06;;;;;;;9.18;4.80;;;-0.60;99.90;;;;;;4949541;28;20404;-77
2023/01/11 08:37:34;;;;;;;7.47;5.38;;;-0.50;99.90;;;;;;4950477;28;20050;-76
2023/01/11 08:40:01;;;;;;;7.60;4.75;;;-0.60;99.90;;;;;;4953076;28;20411;-77
2023/01/11 08:42:31;;;;;;;9.13;4.93;;;-0.60;99.90;;;;;;4969280;28;20051;-77
2023/01/11 08:44:58;;;;;;;8.25;4.55;;;-0.60;99.90;;;;;;4968005;28;20058;-78
2023/01/11 08:47:26;;;;;;;10.80;5.65;;;-0.60;99.90;;;;;;4955279;28;20162;-77
2023/01/11 08:49:53;;;;;;;8.30;5.30;;;-0.60;99.90;;;;;;4941890;28;20051;-76
2023/01/11 08:52:22;;;;;;;9.73;5.20;;;-0.60;99.90;;;;;;4969125;28;20561;-79
2023/01/11 08:54:50;;;;;;;6.40;4.25;;;-0.60;99.90;;;;;;4968483;28;20062;-72
2023/01/11 08:57:17;;;;;;;2.70;2.50;;;-0.60;99.90;;;;;;4946325;28;20460;-71
2023/01/11 08:59:45;;;;;;;8.30;5.97;;;-0.60;99.90;;;;;;4962989;28;20083;-72
2023/01/11 09:02:13;;;;;;;9.13;4.45;;;-0.60;99.90;;;;;;4952484;28;20055;-72
2023/01/11 09:04:42;;;;;;;6.60;4.65;;;-0.60;99.90;;;;;;4948627;28;20072;-71
2023/01/11 09:07:09;;;;;;;7.70;5.22;;;-0.60;99.90;;;;;;4948363;28;20051;-71
2023/01/11 09:09:38;;;;;;;10.98;6.18;;;-0.60;99.90;;;;;;4949356;28;20051;-71
2023/01/11 09:12:06;;;;;;;13.18;6.13;;;-0.60;99.90;;;;;;4949783;28;20051;-71
2023/01/11 09:14:34;;;;;;;11.68;5.82;;;-0.70;99.90;;;;;;4951249;28;20059;-71
2023/01/11 09:17:01;;;;;;;7.53;5.40;;;-0.60;99.90;;;;;;4955751;28;20051;-71
2023/01/11 09:19:29;;;;;;;11.80;5.57;;;-0.60;99.90;;;;;;4954503;28;20047;-71
2023/01/11 09:21:59;;;;;;;8.65;5.32;;;-0.70;99.90;;;;;;4949641;28;20051;-71
2023/01/11 09:24:27;;;;;;;7.95;5.10;;;-0.70;99.90;;;;;;4949938;28;20055;-70
2023/01/11 09:26:58;;;;;;;6.82;4.72;;;-0.70;99.90;;;;;;4947818;28;20421;-71
2023/01/11 09:29:26;;;;;;;10.27;5.10;;;-0.70;99.90;;;;;;4948599;28;20066;-71
2023/01/11 09:31:58;;;;;;;8.45;5.20;;;-0.70;99.90;;;;;;4952450;28;20121;-72
2023/01/11 09:34:26;;;;;;;14.77;6.10;;;-0.70;99.90;;;;;;4961390;28;20145;-70
2023/01/11 09:36:55;;;;;;;9.88;5.93;;;-0.70;99.90;;;;;;4952454;28;21599;-69
2023/01/11 09:39:26;;;;;;;12.93;5.10;;;-0.70;99.90;;;;;;4947895;28;20055;-69
2023/01/11 09:42:17;;;;;;;12.85;5.75;;;-0.70;99.90;;;;;;4946287;28;20051;-71
2023/01/11 09:44:52;;;;;;;8.32;5.38;;;-0.70;99.90;;;;;;4951891;28;20062;-70
2023/01/11 09:47:31;;;;;;;8.55;5.03;;;-0.70;99.90;;;;;;4946017;28;20045;-70
2023/01/11 09:50:02;;;;;;;9.65;5.38;;;-0.60;99.90;;;;;;4947530;28;20051;-71
2023/01/11 09:52:38;;;;;;;10.05;5.18;;;-0.60;99.90;;;;;;4948136;28;20078;-72
2023/01/11 09:55:21;;;;;;;9.05;5.53;;;-0.60;99.90;;;;;;4950221;28;20055;-71
2023/01/11 09:58:31;;;;;;;10.98;4.70;;;-0.70;99.90;;;;;;4965712;28;20062;-70
2023/01/11 10:01:09;;;;;;;8.85;4.82;;;-0.60;99.90;;;;;;4930377;28;20058;-72
2023/01/11 10:04:20;;;;;;;9.23;5.38;;;-0.70;99.90;;;;;;4951949;28;20154;-72
2023/01/11 10:07:09;;;;;;;8.27;5.25;;;-0.70;99.90;;;;;;4949930;28;20061;-72
2023/01/11 10:09:45;;;;;;;6.53;4.32;;;-0.60;99.90;;;;;;4978182;28;20507;-71
2023/01/11 10:12:22;;;;;;;8.45;4.53;;;-0.70;99.90;;;;;;4946353;28;20087;-71
2023/01/11 10:15:07;;;;;;;10.52;4.28;;;-0.70;99.90;;;;;;4961531;28;20134;-70
2023/01/11 10:17:45;;;;;;;13.05;4.90;;;-0.70;99.90;;;;;;4952317;28;20141;-70
2023/01/11 10:20:23;;;;;;;12.30;5.22;;;-0.70;99.90;;;;;;4947486;28;20468;-70
2023/01/11 10:22:55;;;;;;;10.07;5.10;;;-0.70;99.90;;;;;;4961182;28;20542;-72
2023/01/11 10:25:32;;;;;;;9.98;4.60;;;-0.70;99.90;;;;;;4945740;28;20512;-72
2023/01/11 10:28:05;;;;;;;8.82;5.45;;;-0.70;99.90;;;;;;4960683;28;20054;-70
2023/01/11 10:30:54;;;;;;;8.98;5.25;;;-0.70;99.90;;;;;;4963438;28;20526;-71
2023/01/11 10:33:48;;;;;;;7.30;4.90;;;-0.70;99.90;;;;;;4944972;28;20050;-71
2023/01/11 10:36:50;;;;;;;7.85;5.00;;;-0.70;99.90;;;;;;4958801;28;20465;-71
2023/01/11 10:39:45;;;;;;;9.05;5.05;;;-0.70;99.90;;;;;;4959885;28;20056;-72
2023/01/11 10:42:20;;;;;;;12.75;5.10;;;-0.70;99.90;;;;;;4952096;28;20090;-74
2023/01/11 10:44:58;;;;;;;8.82;5.13;;;-0.70;99.90;;;;;;4951093;28;20051;-71
2023/01/11 10:47:33;;;;;;;6.95;5.10;;;-0.80;99.90;;;;;;4942302;28;20047;-72
2023/01/11 10:50:07;;;;;;;6.57;4.60;;;-0.80;99.90;;;;;;4952663;28;20079;-73
2023/01/11 10:52:43;;;;;;;8.00;5.32;;;-0.80;99.90;;;;;;4959622;28;20047;-70
2023/01/11 10:55:18;;;;;;;8.35;4.20;;;-0.80;99.90;;;;;;4960608;28;20051;-71
2023/01/11 10:58:01;;;;;;;10.80;5.22;;;-0.80;99.90;;;;;;4945919;28;20052;-75
2023/01/11 11:00:35;;;;;;;7.70;4.78;;;-0.80;99.90;;;;;;4944260;28;20480;-78
2023/01/11 11:03:43;;;;;;;11.68;4.90;;;-0.80;99.90;;;;;;4945328;28;20150;-78
2023/01/11 11:06:20;;;;;;;8.50;4.25;;;-0.80;99.90;;;;;;4951225;28;20048;-69
2023/01/11 11:08:56;;;;;;;9.55;5.07;;;-0.80;99.90;;;;;;4945221;28;20076;-70
2023/01/11 11:11:31;;;;;;;10.85;5.85;;;-0.80;99.90;;;;;;4947683;28;20476;-75
2023/01/11 11:14:04;;;;;;;11.88;5.53;;;-0.70;99.90;;;;;;4946867;28;20047;-78
2023/01/11 11:16:41;;;;;;;;;;;-0.70;99.90;;;;;;4948364;28;20082;-77
2023/01/11 11:19:15;;;;;;;10.75;5.53;;;-0.70;99.90;;;;;;4947013;28;20394;-77
2023/01/11 11:21:45;;;;;;;6.97;4.32;;;-0.70;99.90;;;;;;4947428;28;20135;-76
2023/01/11 11:24:22;;;;;;;8.68;5.00;;;-0.70;99.90;;;;;;4948535;28;20419;-78
2023/01/11 11:26:59;;;;;;;13.48;4.80;;;-0.70;99.90;;;;;;4948725;28;20380;-78
2023/01/11 11:29:29;;;;;;;11.95;4.22;;;-0.70;99.90;;;;;;4949777;28;20055;-78
2023/01/11 11:31:59;;;;;;;7.20;4.30;;;-0.70;99.90;;;;;;4948738;28;20420;-76
2023/01/11 11:34:29;;;;;;;9.05;5.38;;;-0.70;99.90;;;;;;4944625;28;20074;-75
2023/01/11 11:37:00;;;;;;;7.55;5.28;;;-0.70;99.90;;;;;;4950269;28;20145;-78
2023/01/11 11:39:30;;;;;;;12.35;4.75;;;-0.80;99.90;;;;;;4949406;28;20074;-75
2023/01/11 11:42:06;;;;;;;9.02;5.15;;;-0.80;99.90;;;;;;4949290;28;20517;-75
2023/01/11 11:44:34;;;;;;;7.82;5.05;;;-0.80;99.90;;;;;;4946722;28;20051;-71
2023/01/11 11:47:04;;;;;;;9.38;4.88;;;-0.90;99.90;;;;;;4953571;28;20082;-71
2023/01/11 11:49:34;;;;;;;9.93;5.55;;;-0.90;99.90;;;;;;4981090;28;20094;-71
2023/01/11 11:52:04;;;;;;;16.85;5.60;;;-0.80;99.90;;;;;;4952435;28;20071;-70
2023/01/11 11:54:35;;;;;;;10.85;5.90;;;-0.80;99.90;;;;;;4947538;28;20528;-70
2023/01/11 11:57:15;;;;;;;8.73;4.60;;;-0.80;99.90;;;;;;4946625;28;20044;-73
2023/01/11 11:59:47;;;;;;;9.65;4.65;;;-0.80;99.90;;;;;;4950063;28;20134;-71
2023/01/11 12:02:24;;;;;;;10.70;5.38;;;-0.80;99.90;;;;;;4951178;28;20055;-72
2023/01/11 12:04:55;;;;;;;11.70;5.43;;;-0.80;99.90;;;;;;4941629;28;20047;-76
2023/01/11 12:07:31;;;;;;;8.48;5.25;;;-0.80;99.90;;;;;;4956326;28;20512;-76
2023/01/11 12:10:05;;;;;;;11.88;5.05;;;-0.80;99.90;;;;;;4948465;28;20051;-76
2023/01/11 12:12:33;;;;;;;10.35;6.38;;;-0.80;99.90;;;;;;4948086;28;20503;-76
2023/01/11 12:15:24;;;;;;;23.02;6.80;;;-0.80;99.90;;;;;;4947367;28;20043;-77
2023/01/11 12:17:53;;;;;;;11.25;5.93;;;-0.80;99.90;;;;;;4945691;28;20059;-73
2023/01/11 12:20:37;;;;;;;9.85;5.15;;;-0.80;99.90;;;;;;4952097;28;20422;-76
2023/01/11 12:23:23;;;;;;;7.38;4.72;;;-0.80;99.90;;;;;;4949955;28;20043;-75
2023/01/11 12:26:21;;;;;;;17.30;6.05;;;-0.80;99.90;;;;;;4949942;28;20062;-76
2023/01/11 12:29:32;;;;;;;8.60;5.50;;;-0.80;99.90;;;;;;4962597;28;20043;-75
2023/01/11 12:32:43;;;;;;;9.60;5.38;;;-0.90;99.90;;;;;;4949220;28;20047;-75
2023/01/11 12:35:36;;;;;;;10.30;5.90;;;-0.90;99.90;;;;;;4947582;28;20542;-78
2023/01/11 12:38:23;;;;;;;13.95;5.82;;;-0.90;99.90;;;;;;4949206;28;20078;-77
2023/01/11 12:41:42;;;;;;;7.30;4.57;;;-0.90;99.90;;;;;;4957265;28;20733;-70
2023/01/11 12:44:17;;;;;;;9.02;5.00;;;-0.90;99.90;;;;;;4961796;28;20067;-69
2023/01/11 12:47:11;;;;;;;13.95;6.15;;;-1.00;99.90;;;;;;4948196;28;20504;-73
2023/01/11 12:49:46;;;;;;;7.72;4.90;;;-1.00;99.90;;;;;;4944620;28;20047;-70
2023/01/11 12:52:43;;;;;;;8.48;4.63;;;-1.00;99.90;;;;;;4948853;28;20146;-70
2023/01/11 12:55:28;;;;;;;9.23;5.72;;;-1.00;99.90;;;;;;4959198;28;20613;-70
2023/01/11 12:58:04;;;;;;;8.45;5.00;;;-1.00;99.90;;;;;;4956818;28;20118;-70
2023/01/11 13:01:04;;;;;;;7.38;4.68;;;-1.00;99.90;;;;;;4961447;28;20074;-70
2023/01/11 13:04:19;;;;;;;7.45;4.55;;;-1.00;99.90;;;;;;4946700;28;20591;-70
2023/01/11 13:06:56;;;;;;;12.77;5.82;;;-1.10;99.90;;;;;;4935191;28;83737;-69
2023/01/11 13:09:43;;;;;;;11.60;5.07;;;-1.10;99.90;;;;;;4984478;28;20165;-71
2023/01/11 13:12:17;;;;;;;12.27;5.78;;;-1.10;99.90;;;;;;4987614;28;20093;-70
2023/01/11 13:15:04;;;;;;;12.63;6.60;;;-1.10;99.90;;;;;;4993653;28;20054;-71
2023/01/11 13:17:41;;;;;;;8.45;4.53;;;-1.10;99.90;;;;;;4987718;28;20050;-70
2023/01/11 13:20:38;;;;;;;9.75;5.18;;;-1.10;99.90;;;;;;5006731;28;20529;-70
2023/01/11 13:23:17;;;;;;;11.93;5.38;;;-1.10;99.90;;;;;;4989410;28;20078;-70
2023/01/11 13:25:49;;;;;;;10.50;6.28;;;-1.10;99.90;;;;;;4978194;28;20511;-71
2023/01/11 13:28:28;;;;;;;9.98;5.10;;;-1.10;99.90;;;;;;4981990;28;20053;-70
2023/01/11 13:30:58;;;;;;;9.63;5.47;;;-1.10;99.90;;;;;;4972849;28;20047;-70
2023/01/11 13:33:29;;;;;;;11.27;6.20;;;-1.20;99.90;;;;;;5008258;28;20596;-70
2023/01/11 13:36:03;;;;;;;10.25;5.22;;;-1.20;99.90;;;;;;5000591;28;20088;-72
2023/01/11 13:38:41;;;;;;;10.95;5.40;;;-1.20;99.90;;;;;;4999216;28;20141;-70